createdAt,value
2023-10-10T00:02:56.423Z,96.54
2023-10-10T00:06:58.332Z,96.67
2023-10-10T00:11:00.255Z,96.98
2023-10-10T00:15:04.564Z,96.50
2023-10-10T00:19:30.999Z,96.66
2023-10-10T00:23:40.975Z,97.03
2023-10-10T00:27:44.936Z,97.25
2023-10-10T00:31:56.482Z,97.35
2023-10-10T00:36:00.637Z,97.03
2023-10-10T00:40:10.052Z,96.95
2023-10-10T00:44:19.390Z,97.00
2023-10-10T00:48:23.826Z,97.00
2023-10-10T00:52:25.904Z,96.76
2023-10-10T00:56:30.967Z,96.85
2023-10-10T01:00:33.748Z,96.54
2023-10-10T01:04:55.916Z,96.54
2023-10-10T01:09:17.317Z,96.73
2023-10-10T01:13:19.317Z,96.94
2023-10-10T01:17:24.150Z,96.93
2023-10-10T01:21:34.576Z,97.58
2023-10-10T01:25:36.542Z,97.68
2023-10-10T01:29:51.843Z,97.33
2023-10-10T01:33:54.135Z,98.07
2023-10-10T01:37:56.594Z,97.34
2023-10-10T01:42:00.048Z,97.40
2023-10-10T01:46:17.676Z,97.54
2023-10-10T01:50:19.718Z,97.48
2023-10-10T01:54:30.503Z,97.84
2023-10-10T01:58:32.284Z,97.47
2023-10-10T02:02:36.520Z,98.01
2023-10-10T02:06:41.390Z,97.86
2023-10-10T02:10:47.634Z,98.00
2023-10-10T02:14:49.909Z,97.97
2023-10-10T02:18:56.254Z,97.81
2023-10-10T02:23:09.782Z,98.22
2023-10-10T02:27:15.248Z,98.35
2023-10-10T02:31:18.040Z,98.29
2023-10-10T02:35:29.084Z,98.36
2023-10-10T02:39:32.718Z,98.66
2023-10-10T02:43:35.104Z,98.61
2023-10-10T02:47:38.344Z,98.32
2023-10-10T02:51:44.896Z,98.84
2023-10-10T02:55:53.386Z,98.65
2023-10-10T03:00:29.330Z,98.98
2023-10-10T03:04:49.874Z,98.74
2023-10-10T03:09:07.972Z,98.45
2023-10-10T03:13:29.626Z,99.09
2023-10-10T03:17:44.975Z,99.25
2023-10-10T03:21:48.636Z,98.90
2023-10-10T03:26:06.179Z,98.84
2023-10-10T03:30:21.539Z,99.34
2023-10-10T03:34:46.581Z,98.86
2023-10-10T03:38:50.590Z,98.46
2023-10-10T03:43:11.125Z,98.71
2023-10-10T03:47:31.685Z,98.28
2023-10-10T03:51:52.386Z,98.60
2023-10-10T03:56:12.845Z,98.61
2023-10-10T04:00:34.328Z,98.93
2023-10-10T04:04:54.931Z,98.86
2023-10-10T04:09:15.590Z,98.82
2023-10-10T04:13:35.782Z,98.59
2023-10-10T04:17:56.355Z,99.20
2023-10-10T04:22:16.627Z,99.16
2023-10-10T04:26:37.030Z,98.95
2023-10-10T04:30:57.431Z,99.07
2023-10-10T04:35:18.127Z,99.45
2023-10-10T04:39:38.506Z,99.51
2023-10-10T04:43:59.015Z,99.05
2023-10-10T04:48:19.610Z,99.25
2023-10-10T04:52:39.906Z,99.35
2023-10-10T04:57:00.376Z,99.46
2023-10-10T05:01:27.722Z,99.39
2023-10-10T05:05:48.014Z,99.50
2023-10-10T05:10:08.370Z,99.38
2023-10-10T05:14:28.931Z,99.66
2023-10-10T05:18:53.078Z,99.43
2023-10-10T05:23:13.602Z,99.42
2023-10-10T05:27:15.490Z,99.02
2023-10-10T05:31:23.058Z,99.27
2023-10-10T05:35:25.055Z,99.03
2023-10-10T05:39:27.991Z,99.15
2023-10-10T05:43:35.336Z,99.04
2023-10-10T05:47:37.257Z,98.87
2023-10-10T05:51:39.286Z,98.76
2023-10-10T05:55:42.227Z,99.18
2023-10-10T05:59:44.229Z,98.87
2023-10-10T06:03:47.181Z,98.84
2023-10-10T06:07:50.986Z,98.71
2023-10-10T06:11:52.839Z,99.00
2023-10-10T06:15:54.841Z,98.85
2023-10-10T06:19:58.259Z,98.72
2023-10-10T06:24:00.188Z,98.37
2023-10-10T06:28:02.055Z,98.24
2023-10-10T06:32:04.952Z,97.73
2023-10-10T06:36:24.245Z,97.55
2023-10-10T06:40:26.821Z,97.35
2023-10-10T06:44:41.443Z,97.06
2023-10-10T06:48:43.557Z,96.57
2023-10-10T06:52:45.519Z,96.84
2023-10-10T06:57:03.092Z,96.30
2023-10-10T07:01:06.277Z,96.60
2023-10-10T07:05:16.889Z,96.10
2023-10-10T07:09:29.066Z,95.68
2023-10-10T07:13:31.209Z,95.86
2023-10-10T07:17:34.059Z,95.70
2023-10-10T07:21:38.176Z,95.63
2023-10-10T07:25:45.339Z,95.68
2023-10-10T07:29:47.201Z,95.10
2023-10-10T07:34:17.129Z,95.01
2023-10-10T07:38:19.369Z,94.94
2023-10-10T07:42:28.577Z,95.20
2023-10-10T07:46:37.337Z,94.99
2023-10-10T07:50:49.083Z,95.39
2023-10-10T07:54:55.240Z,95.05
2023-10-10T07:58:58.486Z,94.77
2023-10-10T08:03:00.518Z,95.20
2023-10-10T08:07:04.906Z,94.94
2023-10-10T08:11:13.848Z,95.08
2023-10-10T08:15:22.016Z,94.77
2023-10-10T08:19:34.538Z,94.65
2023-10-10T08:23:37.772Z,94.76
2023-10-10T08:27:47.019Z,94.40
2023-10-10T08:31:48.929Z,94.28
2023-10-10T08:35:51.696Z,93.89
2023-10-10T08:39:53.704Z,93.96
2023-10-10T08:43:59.549Z,94.67
2023-10-10T08:48:04.332Z,94.06
2023-10-10T08:52:07.919Z,94.25
2023-10-10T08:56:09.825Z,94.10
2023-10-10T09:00:13.271Z,94.00
2023-10-10T09:04:20.972Z,93.89
2023-10-10T09:08:29.317Z,93.78
2023-10-10T09:12:34.269Z,94.11
2023-10-10T09:16:43.129Z,93.13
2023-10-10T09:20:48.784Z,92.65
2023-10-10T09:24:50.975Z,92.29
2023-10-10T09:29:04.717Z,92.33
2023-10-10T09:33:29.249Z,92.12
2023-10-10T09:37:36.863Z,92.08
2023-10-10T09:41:59.275Z,91.51
2023-10-10T09:46:20.670Z,91.77
2023-10-10T09:50:25.438Z,91.82
2023-10-10T09:54:29.451Z,91.50
2023-10-10T09:58:43.213Z,91.39
2023-10-10T10:02:51.711Z,90.66
2023-10-10T10:07:14.261Z,90.46
2023-10-10T10:11:27.501Z,89.96
2023-10-10T10:15:52.381Z,88.82
2023-10-10T10:20:19.949Z,88.97
2023-10-10T10:24:32.230Z,88.68
2023-10-10T10:28:37.096Z,87.97
2023-10-10T10:32:43.461Z,87.51
2023-10-10T10:36:52.867Z,87.65
2023-10-10T10:41:17.100Z,87.01
2023-10-10T10:45:28.129Z,86.76
2023-10-10T10:49:39.547Z,86.10
2023-10-10T10:53:42.925Z,86.17
2023-10-10T10:57:50.683Z,85.83
2023-10-10T11:01:59.138Z,85.60
2023-10-10T11:06:02.308Z,85.43
2023-10-10T11:10:10.341Z,84.66
2023-10-10T11:14:21.045Z,84.33
2023-10-10T11:18:36.529Z,83.52
2023-10-10T11:22:41.824Z,83.03
2023-10-10T11:26:46.127Z,82.53
2023-10-10T11:30:48.106Z,82.93
2023-10-10T11:34:51.251Z,82.66
2023-10-10T11:38:57.561Z,82.56
2023-10-10T11:43:12.744Z,82.20
2023-10-10T11:47:26.242Z,82.08
2023-10-10T11:51:37.920Z,81.56
2023-10-10T11:55:43.108Z,82.03
2023-10-10T11:59:48.412Z,81.84
2023-10-10T12:03:50.649Z,81.28
2023-10-10T12:07:54.733Z,80.58
2023-10-10T12:12:05.862Z,80.08
2023-10-10T12:16:14.283Z,79.50
2023-10-10T12:20:17.809Z,79.34
2023-10-10T12:24:19.760Z,79.11
2023-10-10T12:28:22.286Z,79.03
2023-10-10T12:32:24.230Z,78.25
2023-10-10T12:36:34.095Z,78.50
2023-10-10T12:40:36.492Z,78.71
2023-10-10T12:44:38.501Z,78.08
2023-10-10T12:48:43.172Z,78.00
2023-10-10T12:52:48.021Z,77.54
2023-10-10T12:57:00.626Z,77.06
2023-10-10T13:01:02.668Z,76.87
2023-10-10T13:05:08.979Z,76.48
2023-10-10T13:09:16.233Z,76.68
2023-10-10T13:13:27.995Z,76.88
2023-10-10T13:17:29.986Z,76.63
2023-10-10T13:21:31.955Z,76.42
2023-10-10T13:25:40.934Z,75.23
2023-10-10T13:29:43.761Z,74.27
2023-10-10T13:33:46.684Z,73.60
2023-10-10T13:37:48.538Z,73.13
2023-10-10T13:41:50.363Z,72.85
2023-10-10T13:45:52.691Z,71.98
2023-10-10T13:50:14.554Z,70.46
2023-10-10T13:54:17.462Z,69.81
2023-10-10T13:58:19.397Z,69.12
2023-10-10T14:02:26.532Z,68.44
2023-10-10T14:06:35.313Z,67.46
2023-10-10T14:10:39.869Z,66.43
2023-10-10T14:14:46.173Z,66.45
2023-10-10T14:18:51.679Z,66.66
2023-10-10T14:22:56.352Z,66.21
2023-10-10T14:27:00.750Z,65.93
2023-10-10T14:31:05.094Z,65.85
2023-10-10T14:35:09.489Z,65.36
2023-10-10T14:39:29.433Z,65.31
2023-10-10T14:43:34.410Z,65.45
2023-10-10T14:47:40.671Z,65.82
2023-10-10T14:51:43.003Z,65.18
2023-10-10T14:55:45.823Z,64.67
2023-10-10T14:59:47.833Z,64.51
2023-10-10T15:03:50.046Z,63.77
2023-10-10T15:07:53.900Z,63.97
2023-10-10T15:12:00.879Z,64.13
2023-10-10T15:16:03.125Z,65.07
2023-10-10T15:20:13.448Z,65.70
2023-10-10T15:24:16.466Z,65.99
2023-10-10T15:28:19.721Z,66.47
2023-10-10T15:32:21.692Z,66.98
2023-10-10T15:36:23.598Z,66.99
2023-10-10T15:40:25.399Z,67.36
2023-10-10T15:44:28.632Z,67.48
2023-10-10T15:48:30.636Z,67.32
2023-10-10T15:52:35.112Z,67.66
2023-10-10T15:56:38.358Z,68.02
2023-10-10T16:00:40.858Z,67.99
2023-10-10T16:04:44.290Z,68.34
2023-10-10T16:08:48.708Z,68.62
2023-10-10T16:12:50.628Z,69.12
2023-10-10T16:16:52.857Z,69.09
2023-10-10T16:20:54.804Z,69.77
2023-10-10T16:24:56.761Z,69.61
2023-10-10T16:28:58.585Z,70.08
2023-10-10T16:33:00.558Z,70.18
2023-10-10T16:37:02.561Z,70.17
2023-10-10T16:41:08.047Z,70.22
2023-10-10T16:45:11.943Z,70.84
2023-10-10T16:49:16.355Z,70.75
2023-10-10T16:53:18.373Z,70.87
2023-10-10T16:57:27.219Z,70.75
2023-10-10T17:01:29.685Z,71.07
2023-10-10T17:05:37.665Z,70.96
2023-10-10T17:09:41.425Z,70.92
2023-10-10T17:13:43.726Z,70.91
2023-10-10T17:17:49.610Z,70.92
2023-10-10T17:21:51.584Z,70.70
2023-10-10T17:25:53.444Z,70.39
2023-10-10T17:29:58.476Z,69.93
2023-10-10T17:34:02.834Z,70.20
2023-10-10T17:38:04.912Z,70.08
2023-10-10T17:42:08.015Z,70.05
2023-10-10T17:46:16.904Z,70.10
2023-10-10T17:50:18.774Z,69.94
2023-10-10T17:54:20.780Z,69.82
2023-10-10T17:58:22.600Z,69.94
2023-10-10T18:02:24.549Z,69.76
2023-10-10T18:06:27.880Z,69.78
2023-10-10T18:10:29.711Z,69.55
2023-10-10T18:14:32.060Z,69.39
2023-10-10T18:18:36.583Z,68.98
2023-10-10T18:22:40.419Z,68.90
2023-10-10T18:26:42.362Z,68.52
2023-10-10T18:30:44.273Z,68.53
2023-10-10T18:34:46.413Z,68.28
2023-10-10T18:38:49.608Z,68.21
2023-10-10T18:42:52.059Z,67.92
2023-10-10T18:46:53.896Z,67.83
2023-10-10T18:50:56.034Z,67.65
2023-10-10T18:54:57.925Z,67.50
2023-10-10T18:59:02.322Z,67.25
2023-10-10T19:03:08.593Z,66.92
2023-10-10T19:07:11.509Z,66.54
2023-10-10T19:11:14.937Z,66.25
2023-10-10T19:15:17.306Z,65.64
2023-10-10T19:19:21.288Z,64.62
2023-10-10T19:23:23.756Z,64.32
2023-10-10T19:27:26.942Z,63.64
2023-10-10T19:31:28.923Z,63.53
2023-10-10T19:35:30.775Z,63.38
2023-10-10T19:39:34.232Z,63.35
2023-10-10T19:43:37.934Z,63.05
2023-10-10T19:47:41.270Z,63.42
2023-10-10T19:51:45.731Z,64.26
2023-10-10T19:55:50.889Z,64.85
2023-10-10T19:59:52.810Z,65.26
2023-10-10T20:03:57.214Z,66.79
2023-10-10T20:07:59.801Z,67.81
2023-10-10T20:12:04.119Z,68.67
2023-10-10T20:16:16.613Z,69.84
2023-10-10T20:20:21.161Z,70.48
2023-10-10T20:24:25.298Z,71.18
2023-10-10T20:28:27.573Z,72.71
2023-10-10T20:32:29.753Z,73.83
2023-10-10T20:36:31.764Z,74.99
2023-10-10T20:40:35.020Z,75.93
2023-10-10T20:44:37.311Z,77.51
2023-10-10T20:48:39.250Z,78.19
2023-10-10T20:52:42.494Z,78.50
2023-10-10T20:56:44.761Z,78.34
2023-10-10T21:00:46.714Z,78.57
2023-10-10T21:04:48.708Z,79.43
2023-10-10T21:08:50.769Z,79.69
2023-10-10T21:12:53.196Z,80.04
2023-10-10T21:16:55.645Z,80.53
2023-10-10T21:21:04.177Z,81.58
2023-10-10T21:25:07.365Z,82.35
2023-10-10T21:29:09.219Z,82.25
2023-10-10T21:33:11.141Z,82.62
2023-10-10T21:37:14.624Z,83.79
2023-10-10T21:41:16.615Z,84.26
2023-10-10T21:45:20.970Z,85.09
2023-10-10T21:49:22.989Z,85.31
2023-10-10T21:53:24.846Z,85.61
2023-10-10T21:57:26.690Z,85.92
2023-10-10T22:01:28.607Z,85.83
2023-10-10T22:05:31.921Z,85.73
2023-10-10T22:09:33.976Z,86.50
2023-10-10T22:13:38.833Z,86.54
2023-10-10T22:17:40.890Z,86.28
2023-10-10T22:21:43.041Z,87.26
2023-10-10T22:25:44.865Z,87.09
2023-10-10T22:29:46.747Z,87.25
2023-10-10T22:33:48.718Z,87.49
2023-10-10T22:37:52.664Z,88.19
2023-10-10T22:41:54.525Z,88.37
2023-10-10T22:45:56.377Z,88.22
2023-10-10T22:49:58.898Z,88.91
2023-10-10T22:54:02.782Z,88.58
2023-10-10T22:58:09.164Z,88.96
2023-10-10T23:02:12.576Z,88.95
2023-10-10T23:06:14.487Z,89.11
2023-10-10T23:10:21.732Z,89.42
2023-10-10T23:14:23.630Z,89.57
2023-10-10T23:18:25.635Z,89.78
2023-10-10T23:22:27.606Z,89.43
2023-10-10T23:26:29.414Z,89.80
2023-10-10T23:30:34.525Z,90.01
2023-10-10T23:34:36.454Z,89.75
2023-10-10T23:38:41.776Z,90.35
2023-10-10T23:42:52.594Z,90.04
2023-10-10T23:46:56.364Z,90.29
2023-10-10T23:50:58.796Z,90.56
2023-10-10T23:55:02.234Z,90.80
2023-10-10T23:59:04.278Z,90.54
